Red Deer, Alberta

10:30 PM MDT on September 20, 2014 (GMT -0600)
Red Deer Industrial | Change Station
CLOSE
Current Station
Airport
Location: Red Deer,
Elevation: 2969 ft
Nearby Weather Stations

Elev 2969 ft 52.18 °N, 113.89 °W | Updated 30 minutes ago

Clear
Clear
50 °F
Feels Like 50 °F
N
7
Wind Variable Wind from SSW

Tomorrow is forecast to be nearly the same temperature as today.

Today
High -- | Low -- °F
--% Chance of Precip.
Yesterday
High -- | Low -- °F
Precip. -- in
7:18 AM 7:38 PM
Waning Crescent, 9% visible
Pressure 30.22 in
Visibility 15.0 miles
Clouds Clear
Dew Point 41 °F
Humidity 71%
Rainfall 0.00 in
Snow Depth Not available.
UV 0 out of 12
Pollen Not available.
Air Quality Not available.
Flu Activity Not available.
METAR CYQF 210400Z 20006KT 15SM SKC 10/05 A3017 RMK SLP234

More Conditions Fewer Conditions

Pressure 30.22 in
Visibility 15.0 miles
Clouds Clear
Dew Point 41 °F
Humidity 71%
Rainfall 0.00 in
Snow Depth Not available.
UV 0 out of 12
Pollen Not available.
Air Quality Not available.
Flu Activity Not available.
METAR CYQF 210400Z 20006KT 15SM SKC 10/05 A3017 RMK SLP234

More Conditions Fewer Conditions

10-Day Weather Forecast

Almanac

Astronomy

Sep. 20, 2014 Rise Set
Actual Time 7:18 AM MDT 7:38 PM MDT
Civil Twilight 6:44 AM MDT 8:12 PM MDT
Nautical Twilight 6:04 AM MDT 8:52 PM MDT
Astronomical Twilight 5:21 AM MDT 9:34 PM MDT
Moon 3:41 AM MDT (9/20) 6:00 PM MDT (9/20)
Length of Visible Light 13h 27m
Length of Day
12h 19m
Tomorrow will be 4m 1s shorter.
Waning Crescent, 9% of the Moon is Illuminated
Sep 21
Waning Crescent
Sep 24
New
Oct 1
First Quarter
Oct 8
Full
Oct 15
Last Quarter

Today's Extremes

Country Highs Country Lows

Community

WunderPhotos

Upload Photos

1,755,081 photos uploaded!

Nearby

Snow Depth

Not available.

Earthquake Activity

City Distance Mag. Time & Date
No recent earthquake activity has been reported nearby.
Minimum magnitude displayed is 2.5.

Coastal Water Temperatures

Place Temperature
No Stations Reporting

Nearby Weather Stations